Rachel Hailey — WDI3553 — position and weather

sailwx.info

Track history (hours):
 
Tides and Currents Weather Stations Pressure Air Temp Water Temp Dewpoint Dewpoint Depression Visibility Wind Speed Wind Dir Waves Ship Positions

Rachel Hailey

Owner: F/V Natalie Felicia, LLC, West Creek, NJ. More information available from US FCC via Universal Licensing System and Coast Guard Vessel Documentation Center.

Last reported at 2018-Apr-10 20:45 UTC. Time now 2018-Apr-20 12:41 UTC.
Position N 39°50' W 074°04'.
Warning: this ship's position is 9 days out of date.

Length 23 m.

Type: Fishing. MMSI: 367689520.

Date/timePositionNaut miles runAvg speedWind from/ knotsBaromVisibWave heightAir tempDewpointWater temp
2018-Apr-10 20:45N 39°50' W 074°04'2 8.2
2018-Apr-10 20:30N 39°48' W 074°04'3 5.2
2018-Apr-10 20:00N 39°46' W 074°06'0 0.5
2018-Apr-10 19:29N 39°46' W 074°06'5 7.1
2018-Apr-10 18:46N 39°42' W 074°02'3 8.3
2018-Apr-10 18:28N 39°40' W 074°03'4 8.4
2018-Apr-10 18:00N 39°36' W 074°05'180 8.3
2018-Apr-09 20:21N 36°59' W 075°56'3 7.4
2018-Apr-09 19:58N 36°58' W 075°59'4 7.6
2018-Apr-09 19:28N 36°58' W 076°04'0 0.0
2018-Apr-08 06:12N 36°58' W 076°04'  
Track history (hours):
 
Tides and Currents Weather Stations Pressure Air Temp Water Temp Dewpoint Dewpoint Depression Visibility Wind Speed Wind Dir Waves Ship Positions

Rachel Hailey

Owner: F/V Natalie Felicia, LLC, West Creek, NJ. More information available from US FCC via Universal Licensing System and Coast Guard Vessel Documentation Center.

Last reported at 2018-Apr-10 20:45 UTC. Time now 2018-Apr-20 12:41 UTC.
Position N 39°50' W 074°04'.
Warning: this ship's position is 9 days out of date.

Length 23 m.

Type: Fishing. MMSI: 367689520.

Date/timePositionNaut miles runAvg speedWind from/ knotsBaromVisibWave heightAir tempDewpointWater temp
2018-Apr-10 20:45N 39°50' W 074°04'2 8.2
2018-Apr-10 20:30N 39°48' W 074°04'3 5.2
2018-Apr-10 20:00N 39°46' W 074°06'0 0.5
2018-Apr-10 19:29N 39°46' W 074°06'5 7.1
2018-Apr-10 18:46N 39°42' W 074°02'3 8.3
2018-Apr-10 18:28N 39°40' W 074°03'4 8.4
2018-Apr-10 18:00N 39°36' W 074°05'180 8.3
2018-Apr-09 20:21N 36°59' W 075°56'3 7.4
2018-Apr-09 19:58N 36°58' W 075°59'4 7.6
2018-Apr-09 19:28N 36°58' W 076°04'0 0.0
2018-Apr-08 06:12N 36°58' W 076°04'  

Dump ship's entire track history